createdAt,value
2023-10-08T00:01:07.423Z,3.28
2023-10-08T00:03:35.492Z,3.33
2023-10-08T00:06:08.271Z,3.42
2023-10-08T00:08:37.589Z,3.22
2023-10-08T00:11:08.579Z,2.70
2023-10-08T00:13:41.019Z,3.22
2023-10-08T00:16:11.446Z,2.95
2023-10-08T00:18:41.981Z,3.22
2023-10-08T00:21:20.630Z,3.13
2023-10-08T00:23:54.196Z,3.60
2023-10-08T00:26:29.362Z,3.33
2023-10-08T00:29:00.524Z,3.53
2023-10-08T00:31:32.894Z,3.45
2023-10-08T00:34:00.730Z,3.60
2023-10-08T00:36:28.828Z,3.45
2023-10-08T00:39:01.619Z,3.25
2023-10-08T00:41:32.277Z,3.38
2023-10-08T00:44:02.589Z,3.22
2023-10-08T00:46:33.319Z,3.67
2023-10-08T00:49:21.060Z,3.60
2023-10-08T00:51:49.787Z,3.30
2023-10-08T00:54:20.622Z,2.90
2023-10-08T00:56:51.116Z,2.90
2023-10-08T00:59:22.554Z,3.65
2023-10-08T01:01:53.391Z,3.40
2023-10-08T01:04:25.113Z,3.03
2023-10-08T01:07:00.333Z,3.35
2023-10-08T01:09:36.511Z,3.38
2023-10-08T01:12:17.097Z,3.22
2023-10-08T01:14:45.777Z,3.67
2023-10-08T01:17:16.833Z,3.30
2023-10-08T01:19:46.903Z,3.45
2023-10-08T01:22:19.946Z,3.10
2023-10-08T01:24:49.988Z,3.10
2023-10-08T01:27:23.106Z,2.95
2023-10-08T01:29:53.267Z,3.65
2023-10-08T01:32:23.620Z,3.03
2023-10-08T01:34:51.896Z,3.35
2023-10-08T01:37:21.952Z,3.38
2023-10-08T01:39:51.517Z,3.08
2023-10-08T01:42:19.465Z,2.88
2023-10-08T01:44:49.664Z,3.70
2023-10-08T01:47:17.909Z,3.10
2023-10-08T01:49:47.723Z,3.70
2023-10-08T01:52:21.832Z,3.28
2023-10-08T01:54:54.518Z,3.35
2023-10-08T01:57:22.428Z,3.20
2023-10-08T01:59:50.370Z,3.05
2023-10-08T02:02:18.754Z,3.30
2023-10-08T02:04:47.131Z,3.47
2023-10-08T02:07:14.815Z,3.88
2023-10-08T02:09:42.836Z,3.42
2023-10-08T02:12:15.559Z,3.08
2023-10-08T02:14:44.021Z,3.47
2023-10-08T02:17:13.379Z,3.63
2023-10-08T02:19:42.641Z,3.50
2023-10-08T02:22:11.558Z,3.20
2023-10-08T02:24:41.044Z,3.20
2023-10-08T02:27:11.458Z,3.30
2023-10-08T02:29:40.898Z,3.20
2023-10-08T02:32:11.428Z,3.10
2023-10-08T02:34:39.144Z,2.88
2023-10-08T02:37:06.935Z,3.85
2023-10-08T02:39:38.566Z,3.15
2023-10-08T02:42:11.643Z,3.80
2023-10-08T02:44:43.105Z,3.58
2023-10-08T02:47:13.193Z,3.40
2023-10-08T02:49:42.730Z,3.83
2023-10-08T02:52:10.769Z,3.70
2023-10-08T02:54:38.867Z,3.40
2023-10-08T02:57:11.828Z,3.13
2023-10-08T02:59:41.900Z,3.30
2023-10-08T03:02:21.076Z,3.28
2023-10-08T03:04:52.690Z,3.70
2023-10-08T03:07:27.267Z,3.95
2023-10-08T03:10:07.062Z,3.45
2023-10-08T03:12:35.299Z,3.45
2023-10-08T03:15:14.705Z,3.38
2023-10-08T03:17:49.738Z,3.25
2023-10-08T03:20:39.536Z,3.65
2023-10-08T03:23:13.885Z,3.60
2023-10-08T03:25:43.582Z,3.20
2023-10-08T03:28:14.194Z,3.80
2023-10-08T03:30:51.155Z,3.35
2023-10-08T03:33:25.507Z,3.70
2023-10-08T03:38:31.463Z,3.88
2023-10-08T03:41:02.233Z,3.08
2023-10-08T03:43:44.209Z,3.58
2023-10-08T03:46:17.192Z,4.10
2023-10-08T03:48:46.450Z,3.40
2023-10-08T03:51:15.721Z,4.18
2023-10-08T03:53:59.341Z,4.03
2023-10-08T03:59:02.253Z,3.80
2023-10-08T04:01:34.143Z,3.28
2023-10-08T04:04:02.903Z,3.30
2023-10-08T04:06:31.884Z,4.15
2023-10-08T04:09:13.369Z,4.43
2023-10-08T04:11:54.603Z,3.72
2023-10-08T04:14:26.042Z,3.50
2023-10-08T04:16:55.395Z,3.58
2023-10-08T04:19:28.378Z,3.95
2023-10-08T04:21:56.778Z,3.63
2023-10-08T04:24:30.010Z,3.80
2023-10-08T04:26:59.408Z,3.42
2023-10-08T04:29:27.835Z,3.33
2023-10-08T04:32:08.652Z,3.70
2023-10-08T04:34:37.204Z,3.60
2023-10-08T04:37:14.072Z,4.07
2023-10-08T04:39:48.907Z,4.30
2023-10-08T04:42:28.056Z,3.58
2023-10-08T04:44:59.843Z,3.20
2023-10-08T04:47:34.061Z,3.63
2023-10-08T04:50:05.484Z,3.63
2023-10-08T04:52:35.593Z,3.28
2023-10-08T04:55:14.411Z,3.38
2023-10-08T04:57:44.044Z,3.30
2023-10-08T05:00:16.424Z,3.22
2023-10-08T05:02:52.041Z,3.40
2023-10-08T05:05:30.919Z,3.50
2023-10-08T05:08:26.239Z,3.13
2023-10-08T05:11:17.588Z,3.10
2023-10-08T05:13:56.745Z,3.75
2023-10-08T05:16:54.262Z,3.53
2023-10-08T05:19:55.547Z,3.50
2023-10-08T05:22:45.048Z,3.55
2023-10-08T05:25:26.260Z,3.83
2023-10-08T05:28:10.399Z,3.28
2023-10-08T05:30:42.739Z,3.47
2023-10-08T05:33:27.088Z,4.00
2023-10-08T05:36:11.122Z,3.65
2023-10-08T05:39:00.678Z,3.53
2023-10-08T05:41:40.219Z,3.42
2023-10-08T05:44:39.661Z,3.58
2023-10-08T05:47:30.875Z,3.90
2023-10-08T05:50:12.775Z,3.72
2023-10-08T05:53:03.411Z,3.80
2023-10-08T05:55:35.549Z,3.40
2023-10-08T05:58:25.589Z,3.58
2023-10-08T06:01:09.693Z,3.70
2023-10-08T06:03:40.821Z,3.30
2023-10-08T06:06:33.326Z,3.80
2023-10-08T06:09:19.992Z,3.60
2023-10-08T06:11:57.803Z,4.10
2023-10-08T06:14:37.768Z,3.15
2023-10-08T06:17:24.820Z,3.25
2023-10-08T06:19:53.928Z,3.78
2023-10-08T06:22:27.129Z,3.25
2023-10-08T06:25:16.184Z,3.35
2023-10-08T06:27:45.899Z,3.50
2023-10-08T06:30:18.223Z,3.05
2023-10-08T06:32:47.469Z,3.47
2023-10-08T06:35:18.724Z,3.50
2023-10-08T06:37:50.810Z,3.78
2023-10-08T06:40:38.170Z,3.53
2023-10-08T06:43:15.447Z,3.88
2023-10-08T06:45:44.876Z,3.00
2023-10-08T06:48:19.393Z,4.47
2023-10-08T06:50:47.656Z,3.45
2023-10-08T06:53:16.152Z,4.03
2023-10-08T06:55:45.598Z,3.65
2023-10-08T06:58:15.650Z,3.55
2023-10-08T07:00:50.151Z,3.67
2023-10-08T07:03:19.640Z,2.78
2023-10-08T07:05:59.455Z,3.42
2023-10-08T07:08:30.554Z,3.70
2023-10-08T07:11:02.370Z,3.55
2023-10-08T07:13:31.394Z,3.63
2023-10-08T07:16:01.204Z,3.28
2023-10-08T07:18:33.249Z,3.63
2023-10-08T07:21:13.048Z,3.42
2023-10-08T07:23:57.317Z,3.47
2023-10-08T07:26:37.694Z,3.15
2023-10-08T07:29:12.857Z,3.25
2023-10-08T07:31:42.797Z,2.90
2023-10-08T07:34:19.324Z,3.35
2023-10-08T07:36:50.536Z,4.10
2023-10-08T07:39:34.816Z,3.42
2023-10-08T07:42:09.069Z,3.72
2023-10-08T07:44:39.887Z,3.25
2023-10-08T07:47:11.516Z,3.08
2023-10-08T07:49:39.570Z,4.07
2023-10-08T07:52:08.239Z,3.42
2023-10-08T07:54:36.629Z,3.50
2023-10-08T07:57:13.162Z,3.58
2023-10-08T07:59:47.646Z,3.38
2023-10-08T08:02:18.873Z,3.40
2023-10-08T08:04:54.033Z,3.22
2023-10-08T08:07:22.904Z,3.20
2023-10-08T08:09:53.583Z,3.38
2023-10-08T08:12:24.118Z,3.33
2023-10-08T08:14:53.213Z,3.72
2023-10-08T08:17:24.187Z,3.30
2023-10-08T08:19:53.665Z,3.58
2023-10-08T08:22:23.777Z,3.25
2023-10-08T08:24:57.489Z,3.17
2023-10-08T08:27:32.751Z,3.17
2023-10-08T08:30:11.348Z,3.63
2023-10-08T08:32:40.636Z,2.97
2023-10-08T08:35:13.204Z,3.28
2023-10-08T08:37:42.561Z,3.70
2023-10-08T08:40:19.949Z,3.65
2023-10-08T08:42:51.047Z,3.55
2023-10-08T08:45:22.941Z,3.45
2023-10-08T08:47:51.619Z,3.03
2023-10-08T08:50:20.605Z,3.60
2023-10-08T08:52:48.938Z,3.28
2023-10-08T08:55:18.799Z,3.40
2023-10-08T08:57:50.852Z,3.67
2023-10-08T09:00:23.595Z,3.45
2023-10-08T09:02:51.685Z,2.93
2023-10-08T09:05:26.688Z,3.35
2023-10-08T09:08:00.013Z,3.58
2023-10-08T09:10:29.519Z,3.15
2023-10-08T09:13:00.497Z,3.38
2023-10-08T09:15:30.706Z,3.08
2023-10-08T09:18:02.214Z,2.75
2023-10-08T09:20:32.982Z,3.83
2023-10-08T09:23:13.726Z,3.28
2023-10-08T09:25:42.432Z,3.45
2023-10-08T09:28:14.312Z,3.60
2023-10-08T09:30:43.279Z,3.13
2023-10-08T09:33:13.702Z,3.25
2023-10-08T09:35:41.895Z,3.33
2023-10-08T09:38:10.839Z,3.28
2023-10-08T09:40:39.350Z,3.03
2023-10-08T09:43:09.988Z,3.88
2023-10-08T09:45:40.873Z,3.65
2023-10-08T09:48:14.392Z,2.78
2023-10-08T09:50:43.732Z,2.72
2023-10-08T09:53:17.940Z,2.92
2023-10-08T09:55:50.081Z,3.30
2023-10-08T09:58:19.590Z,3.30
2023-10-08T10:00:51.095Z,3.38
2023-10-08T10:03:21.503Z,3.30
2023-10-08T10:05:51.361Z,3.10
2023-10-08T10:08:21.299Z,3.42
2023-10-08T10:10:50.432Z,2.67
2023-10-08T10:13:21.600Z,2.80
2023-10-08T10:15:51.131Z,2.80
2023-10-08T10:18:31.493Z,3.10
2023-10-08T10:21:04.061Z,3.00
2023-10-08T10:23:41.546Z,3.40
2023-10-08T10:26:26.381Z,3.00
2023-10-08T10:29:28.002Z,3.85
2023-10-08T10:31:58.169Z,3.50
2023-10-08T10:34:29.093Z,2.92
2023-10-08T10:37:04.208Z,3.33
2023-10-08T10:39:36.034Z,3.03
2023-10-08T10:42:07.587Z,3.30
2023-10-08T10:44:37.872Z,2.80
2023-10-08T10:47:44.183Z,3.42
2023-10-08T10:50:28.009Z,3.50
2023-10-08T10:52:57.141Z,3.15
2023-10-08T10:55:33.076Z,3.40
2023-10-08T10:58:17.212Z,3.42
2023-10-08T11:00:48.857Z,3.45
2023-10-08T11:03:19.026Z,3.80
2023-10-08T11:05:53.036Z,2.75
2023-10-08T11:08:24.467Z,3.15
2023-10-08T11:10:59.998Z,3.25
2023-10-08T11:13:38.907Z,3.17
2023-10-08T11:16:08.881Z,7.78
2023-10-08T11:18:48.521Z,3.67
2023-10-08T11:21:18.138Z,2.95
2023-10-08T11:23:57.148Z,3.30
2023-10-08T11:26:34.331Z,2.90
2023-10-08T11:29:05.357Z,3.53
2023-10-08T11:31:35.879Z,2.72
2023-10-08T11:34:11.072Z,3.13
2023-10-08T11:36:50.843Z,3.17
2023-10-08T11:39:32.014Z,4.15
2023-10-08T11:42:07.607Z,2.83
2023-10-08T11:44:38.110Z,3.08
2023-10-08T11:47:15.458Z,2.95
2023-10-08T11:49:52.209Z,2.72
2023-10-08T11:52:23.159Z,2.85
2023-10-08T11:54:54.287Z,3.58
2023-10-08T11:57:24.486Z,3.20
2023-10-08T11:59:56.627Z,2.90
2023-10-08T12:02:26.303Z,2.63
2023-10-08T12:04:59.255Z,3.28
2023-10-08T12:09:57.922Z,3.20
2023-10-08T12:12:26.565Z,3.30
2023-10-08T12:14:56.008Z,3.55
2023-10-08T12:17:39.158Z,3.08
2023-10-08T12:20:24.538Z,3.30
2023-10-08T12:22:53.579Z,3.15
2023-10-08T12:25:23.979Z,3.50
2023-10-08T12:27:52.418Z,3.75
2023-10-08T12:30:32.035Z,3.40
2023-10-08T12:33:02.124Z,3.45
2023-10-08T12:35:31.678Z,3.60
2023-10-08T12:37:59.971Z,3.25
2023-10-08T12:40:43.313Z,3.03
2023-10-08T12:43:12.307Z,3.40
2023-10-08T12:45:40.872Z,3.38
2023-10-08T12:48:10.015Z,3.15
2023-10-08T12:50:44.616Z,2.88
2023-10-08T12:53:13.655Z,2.92
2023-10-08T12:55:41.729Z,3.30
2023-10-08T12:58:11.786Z,2.97
2023-10-08T13:00:42.634Z,2.97
2023-10-08T13:03:17.147Z,3.38
2023-10-08T13:05:46.837Z,3.10
2023-10-08T13:08:15.758Z,3.60
2023-10-08T13:10:45.667Z,3.45
2023-10-08T13:13:14.770Z,3.25
2023-10-08T13:15:43.950Z,2.78
2023-10-08T13:18:12.364Z,3.00
2023-10-08T13:20:43.139Z,3.33
2023-10-08T13:23:12.777Z,3.40
2023-10-08T13:25:40.663Z,3.42
2023-10-08T13:28:11.205Z,3.20
2023-10-08T13:30:39.600Z,3.35
2023-10-08T13:33:09.907Z,3.92
2023-10-08T13:35:38.292Z,3.38
2023-10-08T13:38:10.644Z,3.13
2023-10-08T13:41:01.450Z,3.17
2023-10-08T13:43:34.730Z,3.83
2023-10-08T13:46:05.555Z,2.92
2023-10-08T13:48:34.896Z,2.75
2023-10-08T13:51:05.224Z,3.40
2023-10-08T13:53:33.600Z,2.72
2023-10-08T13:56:03.685Z,3.30
2023-10-08T13:58:31.865Z,3.67
2023-10-08T14:01:01.467Z,3.65
2023-10-08T14:03:32.706Z,2.75
2023-10-08T14:06:04.327Z,3.55
2023-10-08T14:08:32.693Z,3.45
2023-10-08T14:11:04.200Z,2.92
2023-10-08T14:13:35.733Z,3.25
2023-10-08T14:16:09.312Z,3.17
2023-10-08T14:18:41.962Z,2.88
2023-10-08T14:21:11.473Z,2.78
2023-10-08T14:23:40.783Z,3.83
2023-10-08T14:26:10.438Z,3.10
2023-10-08T14:28:45.493Z,3.42
2023-10-08T14:31:16.748Z,3.00
2023-10-08T14:33:56.966Z,3.08
2023-10-08T14:36:42.952Z,3.33
2023-10-08T14:39:28.520Z,3.33
2023-10-08T14:42:14.190Z,3.33
2023-10-08T14:44:43.449Z,4.00
2023-10-08T14:47:11.249Z,3.25
2023-10-08T14:49:39.573Z,3.40
2023-10-08T14:52:07.738Z,3.30
2023-10-08T14:54:35.473Z,3.60
2023-10-08T14:57:04.843Z,3.85
2023-10-08T14:59:33.417Z,3.15
2023-10-08T15:02:02.597Z,3.47
2023-10-08T15:04:30.444Z,3.05
2023-10-08T15:06:58.589Z,3.38
2023-10-08T15:09:26.630Z,3.10
2023-10-08T15:11:55.260Z,2.92
2023-10-08T15:14:24.664Z,3.13
2023-10-08T15:16:54.183Z,3.00
2023-10-08T15:19:24.681Z,3.40
2023-10-08T15:21:53.830Z,3.30
2023-10-08T15:24:23.970Z,3.10
2023-10-08T15:26:53.721Z,3.13
2023-10-08T15:29:23.214Z,4.40
2023-10-08T15:31:53.143Z,4.93
2023-10-08T15:34:32.877Z,3.50
2023-10-08T15:37:08.024Z,3.65
2023-10-08T15:39:39.156Z,2.90
2023-10-08T15:42:07.416Z,2.95
2023-10-08T15:44:36.469Z,3.03
2023-10-08T15:47:04.460Z,3.30
2023-10-08T15:49:32.611Z,3.28
2023-10-08T15:52:00.856Z,2.92
2023-10-08T15:54:30.799Z,3.50
2023-10-08T15:56:59.316Z,3.55
2023-10-08T15:59:27.543Z,3.47
2023-10-08T16:01:55.860Z,4.05
2023-10-08T16:04:27.721Z,3.67
2023-10-08T16:06:55.856Z,3.65
2023-10-08T16:09:24.454Z,3.75
2023-10-08T16:11:54.099Z,3.25
2023-10-08T16:14:25.436Z,3.08
2023-10-08T16:16:54.004Z,3.63
2023-10-08T16:19:22.323Z,4.00
2023-10-08T16:21:52.459Z,3.88
2023-10-08T16:24:20.559Z,3.90
2023-10-08T16:26:49.307Z,4.70
2023-10-08T16:29:18.675Z,3.92
2023-10-08T16:31:48.419Z,4.18
2023-10-08T16:34:17.102Z,3.90
2023-10-08T16:36:46.545Z,3.67
2023-10-08T16:39:18.673Z,4.03
2023-10-08T16:41:50.154Z,3.72
2023-10-08T16:44:19.876Z,3.40
2023-10-08T16:46:48.153Z,3.65
2023-10-08T16:49:18.465Z,3.72
2023-10-08T16:51:46.520Z,4.32
2023-10-08T16:54:17.338Z,4.10
2023-10-08T16:56:45.871Z,4.75
2023-10-08T16:59:16.081Z,4.53
2023-10-08T17:01:46.945Z,5.32
2023-10-08T17:04:15.795Z,5.15
2023-10-08T17:06:43.870Z,4.05
2023-10-08T17:09:18.108Z,5.15
2023-10-08T17:11:48.163Z,5.32
2023-10-08T17:14:17.170Z,5.07
2023-10-08T17:16:47.289Z,4.20
2023-10-08T17:19:17.722Z,5.05
2023-10-08T17:21:50.295Z,5.22
2023-10-08T17:24:19.741Z,5.30
2023-10-08T17:27:00.419Z,4.72
2023-10-08T17:29:37.291Z,5.35
2023-10-08T17:32:12.775Z,4.75
2023-10-08T17:34:42.724Z,5.40
2023-10-08T17:37:11.562Z,5.60
2023-10-08T17:39:40.697Z,4.88
2023-10-08T17:42:11.108Z,5.05
2023-10-08T17:44:39.650Z,4.97
2023-10-08T17:47:14.635Z,5.15
2023-10-08T17:49:43.149Z,4.88
2023-10-08T17:52:14.747Z,4.57
2023-10-08T17:54:44.529Z,5.82
2023-10-08T17:57:16.461Z,18.73
2023-10-08T17:59:45.296Z,8.70
2023-10-08T18:02:14.672Z,13.70
2023-10-08T18:04:42.721Z,7.22
2023-10-08T18:07:11.315Z,8.07
2023-10-08T18:09:39.131Z,4.55
2023-10-08T18:12:09.018Z,5.07
2023-10-08T18:14:37.179Z,5.22
2023-10-08T18:17:04.990Z,5.50
2023-10-08T18:19:37.640Z,5.05
2023-10-08T18:22:05.575Z,4.80
2023-10-08T18:24:34.237Z,4.88
2023-10-08T18:27:02.312Z,6.10
2023-10-08T18:29:30.181Z,7.00
2023-10-08T18:31:59.507Z,7.75
2023-10-08T18:34:29.027Z,5.47
2023-10-08T18:37:01.779Z,4.63
2023-10-08T18:39:29.994Z,7.32
2023-10-08T18:42:00.426Z,4.78
2023-10-08T18:44:29.018Z,7.20
2023-10-08T18:46:57.344Z,6.60
2023-10-08T18:49:29.162Z,5.65
2023-10-08T18:51:59.391Z,4.65
2023-10-08T18:54:27.640Z,4.30
2023-10-08T18:56:55.854Z,3.60
2023-10-08T18:59:24.408Z,3.63
2023-10-08T19:01:52.217Z,4.38
2023-10-08T19:04:20.416Z,4.72
2023-10-08T19:06:48.479Z,7.00
2023-10-08T19:09:19.430Z,5.57
2023-10-08T19:11:47.611Z,7.15
2023-10-08T19:14:16.101Z,4.63
2023-10-08T19:16:48.502Z,4.40
2023-10-08T19:19:17.650Z,4.75
2023-10-08T19:21:45.458Z,4.10
2023-10-08T19:24:14.222Z,4.47
2023-10-08T19:26:44.039Z,4.50
2023-10-08T19:29:12.689Z,4.63
2023-10-08T19:31:41.314Z,4.47
2023-10-08T19:34:09.471Z,4.07
2023-10-08T19:36:37.641Z,4.07
2023-10-08T19:39:08.266Z,4.88
2023-10-08T19:41:36.301Z,4.30
2023-10-08T19:44:09.220Z,5.85
2023-10-08T19:46:37.276Z,12.25
2023-10-08T19:49:06.110Z,5.22
2023-10-08T19:51:35.524Z,4.93
2023-10-08T19:54:04.935Z,4.30
2023-10-08T19:56:33.179Z,5.70
2023-10-08T19:59:01.145Z,5.78
2023-10-08T20:01:34.443Z,5.65
2023-10-08T20:04:02.479Z,4.35
2023-10-08T20:06:31.656Z,4.57
2023-10-08T20:09:00.100Z,4.22
2023-10-08T20:11:28.889Z,3.83
2023-10-08T20:13:56.818Z,4.53
2023-10-08T20:16:26.254Z,4.15
2023-10-08T20:18:56.182Z,4.65
2023-10-08T20:21:23.974Z,4.47
2023-10-08T20:23:53.148Z,4.38
2023-10-08T20:26:23.412Z,4.63
2023-10-08T20:28:54.728Z,5.13
2023-10-08T20:31:25.517Z,4.45
2023-10-08T20:33:56.586Z,4.65
2023-10-08T20:36:25.052Z,4.53
2023-10-08T20:38:54.498Z,3.90
2023-10-08T20:41:22.434Z,4.25
2023-10-08T20:43:51.724Z,4.00
2023-10-08T20:46:31.878Z,4.45
2023-10-08T20:49:01.784Z,4.30
2023-10-08T20:51:29.961Z,4.07
2023-10-08T20:53:58.385Z,4.45
2023-10-08T20:56:27.146Z,4.18
2023-10-08T20:58:55.279Z,4.38
2023-10-08T21:01:34.713Z,4.50
2023-10-08T21:04:04.647Z,4.63
2023-10-08T21:06:32.775Z,4.63
2023-10-08T21:09:01.173Z,4.80
2023-10-08T21:11:30.480Z,4.35
2023-10-08T21:13:58.924Z,4.45
2023-10-08T21:16:27.633Z,4.40
2023-10-08T21:18:55.821Z,4.65
2023-10-08T21:21:25.718Z,4.32
2023-10-08T21:23:55.154Z,4.53
2023-10-08T21:26:23.513Z,4.53
2023-10-08T21:28:54.243Z,4.90
2023-10-08T21:31:22.400Z,5.15
2023-10-08T21:33:51.215Z,4.72
2023-10-08T21:36:19.805Z,4.38
2023-10-08T21:38:52.906Z,5.00
2023-10-08T21:41:21.316Z,5.47
2023-10-08T21:43:53.717Z,5.60
2023-10-08T21:46:25.784Z,5.88
2023-10-08T21:48:54.017Z,4.65
2023-10-08T21:51:23.867Z,5.47
2023-10-08T21:53:53.382Z,5.88
2023-10-08T21:56:21.481Z,5.55
2023-10-08T21:58:50.333Z,5.57
2023-10-08T22:01:25.146Z,5.88
2023-10-08T22:03:54.435Z,5.00
2023-10-08T22:06:23.766Z,5.57
2023-10-08T22:08:53.454Z,5.57
2023-10-08T22:11:25.363Z,5.70
2023-10-08T22:13:53.595Z,5.47
2023-10-08T22:16:23.812Z,4.97
2023-10-08T22:18:58.082Z,5.57
2023-10-08T22:21:30.152Z,5.35
2023-10-08T22:24:01.307Z,5.78
2023-10-08T22:26:29.908Z,5.97
2023-10-08T22:29:02.218Z,5.32
2023-10-08T22:31:34.193Z,5.90
2023-10-08T22:34:08.490Z,6.15
2023-10-08T22:36:46.004Z,6.10
2023-10-08T22:39:20.617Z,5.25
2023-10-08T22:41:55.644Z,5.80
2023-10-08T22:44:24.319Z,5.95
2023-10-08T22:47:04.636Z,5.40
2023-10-08T22:49:33.960Z,5.10
2023-10-08T22:52:04.867Z,5.25
2023-10-08T22:54:38.068Z,4.78
2023-10-08T22:57:06.954Z,4.85
2023-10-08T22:59:36.767Z,4.72
2023-10-08T23:02:06.586Z,4.28
2023-10-08T23:04:35.287Z,4.65
2023-10-08T23:07:05.084Z,4.75
2023-10-08T23:09:34.449Z,4.45
2023-10-08T23:12:02.343Z,4.70
2023-10-08T23:14:30.270Z,4.90
2023-10-08T23:16:58.369Z,5.03
2023-10-08T23:19:27.195Z,5.20
2023-10-08T23:22:00.040Z,4.95
2023-10-08T23:24:27.837Z,3.88
2023-10-08T23:26:57.067Z,5.68
2023-10-08T23:29:25.778Z,4.20
2023-10-08T23:31:53.586Z,5.18
2023-10-08T23:34:22.688Z,4.95
2023-10-08T23:36:53.948Z,5.03
2023-10-08T23:39:27.391Z,4.82
2023-10-08T23:42:02.386Z,5.10
2023-10-08T23:44:32.448Z,4.88
2023-10-08T23:47:10.661Z,4.95
2023-10-08T23:50:11.085Z,4.78
2023-10-08T23:52:38.928Z,4.50
2023-10-08T23:55:08.555Z,4.90
2023-10-08T23:57:48.539Z,4.93
